createdAt,value
2018-08-29T00:00:53.920Z,1011.2
2018-08-29T00:01:55.944Z,1011.2
2018-08-29T00:02:57.982Z,1011.2
2018-08-29T00:04:00.289Z,1011.2
2018-08-29T00:05:02.598Z,1011.2
2018-08-29T00:06:05.014Z,1011.2
2018-08-29T00:07:07.043Z,1011.2
2018-08-29T00:08:09.070Z,1011.2
2018-08-29T00:09:11.386Z,1011.2
2018-08-29T00:10:13.701Z,1011.2
2018-08-29T00:11:15.718Z,1011.2
2018-08-29T00:12:18.043Z,1011.2
2018-08-29T00:13:20.078Z,1011.2
2018-08-29T00:14:22.102Z,1011.2
2018-08-29T00:15:24.130Z,1011.2
2018-08-29T00:16:26.547Z,1011.2
2018-08-29T00:17:28.572Z,1011.2
2018-08-29T00:18:30.603Z,1011.2
2018-08-29T00:19:32.630Z,1011.2
2018-08-29T00:20:34.654Z,1011.2
2018-08-29T00:21:36.968Z,1011.2
2018-08-29T00:22:38.999Z,1011.2
2018-08-29T00:23:41.029Z,1011.2
2018-08-29T00:24:43.062Z,1011.2
2018-08-29T00:25:45.102Z,1011.2
2018-08-29T00:26:47.415Z,1011.2
2018-08-29T00:27:49.434Z,1011.2
2018-08-29T00:28:51.469Z,1011.2
2018-08-29T00:29:53.501Z,1011.2
2018-08-29T00:30:55.821Z,1011.2
2018-08-29T00:31:58.126Z,1011.2
2018-08-29T00:33:00.159Z,1011.2
2018-08-29T00:34:02.186Z,1011.2
2018-08-29T00:35:04.208Z,1011.1
2018-08-29T00:36:06.531Z,1011.1
2018-08-29T00:37:08.548Z,1011.1
2018-08-29T00:38:10.577Z,1011
2018-08-29T00:39:12.596Z,1011.1
2018-08-29T00:40:14.632Z,1011.1
2018-08-29T00:41:16.658Z,1011.1
2018-08-29T00:42:18.690Z,1011.1
2018-08-29T00:43:20.729Z,1011.1
2018-08-29T00:44:22.748Z,1011.1
2018-08-29T00:45:24.788Z,1011.1
2018-08-29T00:46:27.094Z,1011.1
2018-08-29T00:47:29.117Z,1011.1
2018-08-29T00:48:31.448Z,1011.1
2018-08-29T00:49:33.480Z,1011.1
2018-08-29T00:50:35.503Z,1011.1
2018-08-29T00:51:37.535Z,1011.1
2018-08-29T00:52:39.565Z,1011.1
2018-08-29T00:53:41.583Z,1011.1
2018-08-29T00:54:43.610Z,1011.1
2018-08-29T00:55:45.639Z,1011.1
2018-08-29T00:56:47.674Z,1011.1
2018-08-29T00:57:49.699Z,1011.1
2018-08-29T00:58:51.733Z,1011.1
2018-08-29T00:59:54.146Z,1011.1
2018-08-29T01:00:56.490Z,1011.1
2018-08-29T01:01:58.510Z,1011.1
2018-08-29T01:03:00.824Z,1011.1
2018-08-29T01:04:02.841Z,1011.1
2018-08-29T01:05:04.872Z,1011.1
2018-08-29T01:06:06.910Z,1011.1
2018-08-29T01:07:08.939Z,1011.1
2018-08-29T01:08:10.964Z,1011.1
2018-08-29T01:09:13.001Z,1011.1
2018-08-29T01:10:15.020Z,1011.1
2018-08-29T01:11:17.047Z,1011
2018-08-29T01:12:19.068Z,1011.1
2018-08-29T01:13:21.101Z,1011.1
2018-08-29T01:14:23.791Z,1011
2018-08-29T01:15:26.131Z,1011
2018-08-29T01:16:28.164Z,1011.1
2018-08-29T01:17:30.183Z,1011
2018-08-29T01:18:32.228Z,1011
2018-08-29T01:19:34.256Z,1011
2018-08-29T01:20:36.280Z,1011.1
2018-08-29T01:21:38.309Z,1011
2018-08-29T01:22:40.341Z,1011
2018-08-29T01:23:42.745Z,1011
2018-08-29T01:24:44.779Z,1011
2018-08-29T01:25:47.085Z,1011
2018-08-29T01:26:49.398Z,1011
2018-08-29T01:27:51.999Z,1011
2018-08-29T01:28:54.037Z,1010.9
2018-08-29T01:29:56.056Z,1011
2018-08-29T01:30:58.092Z,1011
2018-08-29T01:32:00.124Z,1011
2018-08-29T01:33:02.432Z,1011
2018-08-29T01:34:04.524Z,1010.9
2018-08-29T01:35:06.813Z,1011
2018-08-29T01:36:08.842Z,1011
2018-08-29T01:37:10.869Z,1011
2018-08-29T01:38:12.902Z,1011
2018-08-29T01:39:15.233Z,1010.9
2018-08-29T01:40:17.264Z,1010.9
2018-08-29T01:41:19.292Z,1010.9
2018-08-29T01:42:21.307Z,1010.9
2018-08-29T01:43:23.350Z,1010.9
2018-08-29T01:44:25.763Z,1010.9
2018-08-29T01:45:27.806Z,1010.9
2018-08-29T01:46:30.213Z,1010.9
2018-08-29T01:47:32.243Z,1010.9
2018-08-29T01:48:34.266Z,1010.9
2018-08-29T01:49:36.286Z,1010.9
2018-08-29T01:50:38.322Z,1010.9
2018-08-29T01:51:40.621Z,1010.9
2018-08-29T01:52:42.934Z,1010.9
2018-08-29T01:53:44.967Z,1010.9
2018-08-29T01:54:46.995Z,1010.9
2018-08-29T01:55:49.020Z,1010.9
2018-08-29T01:56:51.052Z,1010.9
2018-08-29T01:57:53.354Z,1010.9
2018-08-29T01:58:55.386Z,1010.9
2018-08-29T01:59:57.428Z,1010.9
2018-08-29T02:00:59.457Z,1010.9
2018-08-29T02:02:01.480Z,1010.8
2018-08-29T02:03:03.513Z,1010.9
2018-08-29T02:04:05.536Z,1010.8
2018-08-29T02:05:07.562Z,1010.8
2018-08-29T02:06:09.602Z,1010.8
2018-08-29T02:07:11.904Z,1010.8
2018-08-29T02:08:13.940Z,1010.8
2018-08-29T02:09:15.972Z,1010.8
2018-08-29T02:10:18.398Z,1010.9
2018-08-29T02:11:21.092Z,1010.8
2018-08-29T02:12:23.129Z,1010.8
2018-08-29T02:13:25.440Z,1010.8
2018-08-29T02:14:28.129Z,1010.8
2018-08-29T02:15:30.552Z,1010.8
2018-08-29T02:16:32.856Z,1010.8
2018-08-29T02:17:34.880Z,1010.8
2018-08-29T02:18:37.183Z,1010.8
2018-08-29T02:19:39.815Z,1010.8
2018-08-29T02:20:41.830Z,1010.8
2018-08-29T02:21:44.237Z,1010.7
2018-08-29T02:22:46.550Z,1010.7
2018-08-29T02:23:49.166Z,1010.7
2018-08-29T02:24:51.186Z,1010.7
2018-08-29T02:25:53.215Z,1010.7
2018-08-29T02:26:55.250Z,1010.7
2018-08-29T02:27:57.280Z,1010.8
2018-08-29T02:28:59.302Z,1010.7
2018-08-29T02:30:01.338Z,1010.8
2018-08-29T02:31:03.748Z,1010.8
2018-08-29T02:32:05.781Z,1010.8
2018-08-29T02:33:07.819Z,1010.8
2018-08-29T02:34:10.140Z,1010.8
2018-08-29T02:35:12.546Z,1010.8
2018-08-29T02:36:14.576Z,1010.7
2018-08-29T02:37:16.989Z,1010.7
2018-08-29T02:38:19.009Z,1010.7
2018-08-29T02:39:21.042Z,1010.7
2018-08-29T02:40:23.062Z,1010.7
2018-08-29T02:41:25.096Z,1010.7
2018-08-29T02:42:27.123Z,1010.6
2018-08-29T02:43:29.159Z,1010.7
2018-08-29T02:44:31.179Z,1010.7
2018-08-29T02:45:33.211Z,1010.7
2018-08-29T02:46:35.239Z,1010.7
2018-08-29T02:47:37.265Z,1010.7
2018-08-29T02:48:39.301Z,1010.7
2018-08-29T02:49:41.317Z,1010.6
2018-08-29T02:50:43.735Z,1010.7
2018-08-29T02:51:45.762Z,1010.7
2018-08-29T02:52:47.796Z,1010.7
2018-08-29T02:53:49.819Z,1010.7
2018-08-29T02:54:51.852Z,1010.6
2018-08-29T02:55:53.881Z,1010.6
2018-08-29T02:56:55.898Z,1010.6
2018-08-29T02:57:58.710Z,1010.6
2018-08-29T02:59:01.013Z,1010.6
2018-08-29T03:00:04.002Z,1010.6
2018-08-29T03:01:06.029Z,1010.6
2018-08-29T03:02:08.337Z,1010.6
2018-08-29T03:03:10.381Z,1010.6
2018-08-29T03:04:12.400Z,1010.6
2018-08-29T03:05:14.426Z,1010.6
2018-08-29T03:06:16.463Z,1010.6
2018-08-29T03:07:18.492Z,1010.6
2018-08-29T03:08:20.898Z,1010.6
2018-08-29T03:09:22.933Z,1010.6
2018-08-29T03:10:24.958Z,1010.6
2018-08-29T03:11:27.363Z,1010.6
2018-08-29T03:12:29.401Z,1010.5
2018-08-29T03:13:31.720Z,1010.6
2018-08-29T03:14:33.748Z,1010.5
2018-08-29T03:15:36.357Z,1010.5
2018-08-29T03:16:38.386Z,1010.5
2018-08-29T03:17:40.690Z,1010.5
2018-08-29T03:18:42.728Z,1010.5
2018-08-29T03:19:45.048Z,1010.5
2018-08-29T03:20:47.068Z,1010.5
2018-08-29T03:21:49.395Z,1010.4
2018-08-29T03:22:51.415Z,1010.4
2018-08-29T03:23:53.445Z,1010.5
2018-08-29T03:24:55.751Z,1010.4
2018-08-29T03:25:58.185Z,1010.4
2018-08-29T03:27:00.593Z,1010.4
2018-08-29T03:28:02.930Z,1010.4
2018-08-29T03:29:05.260Z,1010.4
2018-08-29T03:30:07.282Z,1010.4
2018-08-29T03:31:09.902Z,1010.4
2018-08-29T03:32:11.937Z,1010.5
2018-08-29T03:33:13.968Z,1010.5
2018-08-29T03:34:15.991Z,1010.5
2018-08-29T03:35:18.025Z,1010.5
2018-08-29T03:36:20.437Z,1010.5
2018-08-29T03:37:22.461Z,1010.5
2018-08-29T03:38:24.594Z,1010.5
2018-08-29T03:39:26.535Z,1010.4
2018-08-29T03:40:28.556Z,1010.4
2018-08-29T03:41:30.583Z,1010.4
2018-08-29T03:42:32.620Z,1010.4
2018-08-29T03:43:34.642Z,1010.4
2018-08-29T03:44:36.667Z,1010.4
2018-08-29T03:45:38.703Z,1010.4
2018-08-29T03:46:41.007Z,1010.4
2018-08-29T03:47:43.347Z,1010.4
2018-08-29T03:48:45.374Z,1010.3
2018-08-29T03:49:47.689Z,1010.3
2018-08-29T03:50:49.712Z,1010.3
2018-08-29T03:51:51.749Z,1010.3
2018-08-29T03:52:53.777Z,1010.3
2018-08-29T03:53:55.799Z,1010.3
2018-08-29T03:54:58.164Z,1010.3
2018-08-29T03:56:00.469Z,1010.3
2018-08-29T03:57:02.502Z,1010.3
2018-08-29T03:58:04.524Z,1010.3
2018-08-29T03:59:06.559Z,1010.3
2018-08-29T04:00:08.865Z,1010.3
2018-08-29T04:01:10.900Z,1010.3
2018-08-29T04:02:13.236Z,1010.2
2018-08-29T04:03:15.254Z,1010.2
2018-08-29T04:04:17.577Z,1010.2
2018-08-29T04:05:19.892Z,1010.2
2018-08-29T04:06:21.913Z,1010.2
2018-08-29T04:07:24.223Z,1010.2
2018-08-29T04:08:26.638Z,1010.2
2018-08-29T04:09:28.670Z,1010.2
2018-08-29T04:10:31.006Z,1010.1
2018-08-29T04:11:33.100Z,1010.1
2018-08-29T04:12:35.058Z,1010.2
2018-08-29T04:13:37.088Z,1010.1
2018-08-29T04:14:39.407Z,1010.2
2018-08-29T04:15:41.428Z,1010.2
2018-08-29T04:16:43.461Z,1010.2
2018-08-29T04:17:45.494Z,1010.2
2018-08-29T04:18:47.802Z,1010.2
2018-08-29T04:19:49.845Z,1010.2
2018-08-29T04:20:51.868Z,1010.2
2018-08-29T04:21:54.021Z,1010.1
2018-08-29T04:22:55.925Z,1010.2
2018-08-29T04:23:57.963Z,1010.1
2018-08-29T04:25:00.274Z,1010.2
2018-08-29T04:26:02.687Z,1010.1
2018-08-29T04:27:05.016Z,1010.1
2018-08-29T04:28:07.034Z,1010.1
2018-08-29T04:29:09.074Z,1010.2
2018-08-29T04:30:11.102Z,1010.1
2018-08-29T04:31:13.135Z,1010.1
2018-08-29T04:32:15.238Z,1010.1
2018-08-29T04:33:17.201Z,1010.1
2018-08-29T04:34:19.511Z,1010
2018-08-29T04:35:21.834Z,1010
2018-08-29T04:36:23.875Z,1010
2018-08-29T04:37:26.193Z,1010
2018-08-29T04:38:28.222Z,1010
2018-08-29T04:39:30.256Z,1010
2018-08-29T04:40:32.287Z,1009.9
2018-08-29T04:41:34.699Z,1010
2018-08-29T04:42:37.407Z,1010
2018-08-29T04:43:39.727Z,1010
2018-08-29T04:44:42.106Z,1009.9
2018-08-29T04:45:44.145Z,1010
2018-08-29T04:46:46.171Z,1009.9
2018-08-29T04:47:48.192Z,1009.9
2018-08-29T04:48:50.618Z,1009.9
2018-08-29T04:49:52.641Z,1009.9
2018-08-29T04:50:54.968Z,1010
2018-08-29T04:51:56.993Z,1010
2018-08-29T04:52:59.031Z,1009.9
2018-08-29T04:54:01.153Z,1009.9
2018-08-29T04:55:04.025Z,1009.9
2018-08-29T04:56:06.044Z,1009.9
2018-08-29T04:57:08.079Z,1009.9
2018-08-29T04:58:10.390Z,1009.9
2018-08-29T04:59:12.411Z,1009.9
2018-08-29T05:00:14.832Z,1009.9
2018-08-29T05:01:17.932Z,1009.9
2018-08-29T05:02:19.971Z,1009.9
2018-08-29T05:03:22.670Z,1009.9
2018-08-29T05:04:24.704Z,1009.9
2018-08-29T05:05:27.012Z,1010
2018-08-29T05:06:29.047Z,1010
2018-08-29T05:07:31.067Z,1010
2018-08-29T05:08:33.374Z,1010
2018-08-29T05:09:35.700Z,1010
2018-08-29T05:10:37.720Z,1010
2018-08-29T05:11:40.307Z,1009.9
2018-08-29T05:12:42.726Z,1009.8
2018-08-29T05:13:44.752Z,1009.9
2018-08-29T05:14:46.775Z,1009.8
2018-08-29T05:15:49.098Z,1009.8
2018-08-29T05:16:51.121Z,1009.9
2018-08-29T05:17:53.149Z,1009.9
2018-08-29T05:18:55.574Z,1009.9
2018-08-29T05:19:57.604Z,1009.8
2018-08-29T05:20:59.627Z,1009.9
2018-08-29T05:22:01.660Z,1009.9
2018-08-29T05:23:03.960Z,1009.9
2018-08-29T05:24:05.995Z,1009.8
2018-08-29T05:25:08.030Z,1009.9
2018-08-29T05:26:10.051Z,1009.9
2018-08-29T05:27:12.086Z,1009.9
2018-08-29T05:28:14.803Z,1009.8
2018-08-29T05:29:16.841Z,1009.8
2018-08-29T05:30:18.868Z,1009.8
2018-08-29T05:31:20.896Z,1009.9
2018-08-29T05:32:22.923Z,1009.9
2018-08-29T05:33:24.962Z,1009.9
2018-08-29T05:34:27.287Z,1009.9
2018-08-29T05:35:29.709Z,1010
2018-08-29T05:36:31.737Z,1009.9
2018-08-29T05:37:33.768Z,1009.9
2018-08-29T05:38:35.795Z,1009.9
2018-08-29T05:39:37.825Z,1009.9
2018-08-29T05:40:40.131Z,1009.9
2018-08-29T05:41:42.155Z,1010
2018-08-29T05:42:44.196Z,1010
2018-08-29T05:43:46.214Z,1010
2018-08-29T05:44:48.250Z,1010
2018-08-29T05:45:50.285Z,1010.1
2018-08-29T05:46:52.314Z,1010.1
2018-08-29T05:47:54.460Z,1010
2018-08-29T05:48:56.378Z,1010
2018-08-29T05:49:58.689Z,1010
2018-08-29T05:51:00.713Z,1010
2018-08-29T05:52:02.755Z,1010
2018-08-29T05:53:04.784Z,1010
2018-08-29T05:54:06.811Z,1009.9
2018-08-29T05:55:09.133Z,1010
2018-08-29T05:56:11.159Z,1009.9
2018-08-29T05:57:13.185Z,1010
2018-08-29T05:58:15.220Z,1010
2018-08-29T05:59:17.525Z,1010
2018-08-29T06:00:19.564Z,1010
2018-08-29T06:01:21.885Z,1010
2018-08-29T06:02:23.904Z,1010.1
2018-08-29T06:03:25.928Z,1010.1
2018-08-29T06:04:28.248Z,1010.1
2018-08-29T06:05:30.274Z,1010.2
2018-08-29T06:06:32.298Z,1010.2
2018-08-29T06:07:34.328Z,1010.2
2018-08-29T06:08:36.366Z,1010.2
2018-08-29T06:09:38.399Z,1010.2
2018-08-29T06:10:40.433Z,1010.2
2018-08-29T06:11:42.735Z,1010.2
2018-08-29T06:12:44.772Z,1010.2
2018-08-29T06:13:46.798Z,1010.1
2018-08-29T06:14:48.825Z,1010.2
2018-08-29T06:15:50.862Z,1010.2
2018-08-29T06:16:52.878Z,1010.2
2018-08-29T06:17:54.907Z,1010.2
2018-08-29T06:18:56.941Z,1010.2
2018-08-29T06:19:58.972Z,1010.1
2018-08-29T06:21:00.999Z,1010.2
2018-08-29T06:22:03.033Z,1010.1
2018-08-29T06:23:05.060Z,1010.1
2018-08-29T06:24:07.088Z,1010.1
2018-08-29T06:25:09.131Z,1010.1
2018-08-29T06:26:11.162Z,1010
2018-08-29T06:27:13.192Z,1010
2018-08-29T06:28:15.224Z,1010
2018-08-29T06:29:17.248Z,1010
2018-08-29T06:30:19.846Z,1010
2018-08-29T06:31:22.555Z,1010
2018-08-29T06:32:24.636Z,1010
2018-08-29T06:33:26.618Z,1010
2018-08-29T06:34:28.651Z,1010
2018-08-29T06:35:30.810Z,1010
2018-08-29T06:36:32.713Z,1010
2018-08-29T06:37:35.055Z,1010.1
2018-08-29T06:38:37.081Z,1010.1
2018-08-29T06:39:39.258Z,1010.1
2018-08-29T06:40:41.671Z,1010.2
2018-08-29T06:41:43.693Z,1010.2
2018-08-29T06:42:45.791Z,1010.1
2018-08-29T06:43:48.601Z,1010.1
2018-08-29T06:44:50.640Z,1010
2018-08-29T06:45:52.660Z,1010
2018-08-29T06:46:54.701Z,1010
2018-08-29T06:47:57.127Z,1010
2018-08-29T06:48:59.428Z,1010
2018-08-29T06:50:01.469Z,1010
2018-08-29T06:51:03.805Z,1009.9
2018-08-29T06:52:05.829Z,1009.9
2018-08-29T06:53:07.855Z,1009.9
2018-08-29T06:54:09.894Z,1009.8
2018-08-29T06:55:11.916Z,1009.9
2018-08-29T06:56:13.952Z,1009.8
2018-08-29T06:57:15.984Z,1009.9
2018-08-29T06:58:18.004Z,1009.9
2018-08-29T06:59:20.036Z,1010
2018-08-29T07:00:22.456Z,1010
2018-08-29T07:01:24.485Z,1010
2018-08-29T07:02:26.908Z,1010
2018-08-29T07:03:28.947Z,1010
2018-08-29T07:04:30.974Z,1009.9
2018-08-29T07:05:33.402Z,1009.9
2018-08-29T07:06:35.750Z,1009.9
2018-08-29T07:07:38.172Z,1009.9
2018-08-29T07:08:40.490Z,1009.9
2018-08-29T07:09:42.538Z,1009.8
2018-08-29T07:10:44.554Z,1009.8
2018-08-29T07:11:46.876Z,1009.8
2018-08-29T07:12:49.199Z,1009.8
2018-08-29T07:13:51.222Z,1009.8
2018-08-29T07:14:53.268Z,1009.8
2018-08-29T07:15:55.643Z,1009.8
2018-08-29T07:16:57.625Z,1009.8
2018-08-29T07:17:59.659Z,1009.7
2018-08-29T07:19:01.698Z,1009.7
2018-08-29T07:20:03.996Z,1009.7
2018-08-29T07:21:06.026Z,1009.8
2018-08-29T07:22:08.067Z,1009.8
2018-08-29T07:23:10.518Z,1009.7
2018-08-29T07:24:12.518Z,1009.7
2018-08-29T07:25:14.934Z,1009.7
2018-08-29T07:26:16.965Z,1009.7
2018-08-29T07:27:19.008Z,1009.7
2018-08-29T07:28:21.036Z,1009.7
2018-08-29T07:29:24.111Z,1009.7
2018-08-29T07:30:27.049Z,1009.6
2018-08-29T07:31:29.360Z,1009.5
2018-08-29T07:32:31.389Z,1009.5
2018-08-29T07:33:33.427Z,1009.5
2018-08-29T07:34:35.454Z,1009.5
2018-08-29T07:35:37.518Z,1009.5
2018-08-29T07:36:39.903Z,1009.5
2018-08-29T07:37:41.929Z,1009.5
2018-08-29T07:38:43.979Z,1009.5
2018-08-29T07:39:46.009Z,1009.5
2018-08-29T07:40:48.046Z,1009.5
2018-08-29T07:41:50.427Z,1009.5
2018-08-29T07:42:52.413Z,1009.5
2018-08-29T07:43:54.446Z,1009.5
2018-08-29T07:44:56.778Z,1009.4
2018-08-29T07:45:59.201Z,1009.4
2018-08-29T07:47:01.225Z,1009.4
2018-08-29T07:48:03.582Z,1009.4
2018-08-29T07:49:05.617Z,1009.4
2018-08-29T07:50:07.659Z,1009.5
2018-08-29T07:51:09.688Z,1009.4
2018-08-29T07:52:11.726Z,1009.5
2018-08-29T07:53:13.755Z,1009.4
2018-08-29T07:54:15.793Z,1009.4
2018-08-29T07:55:17.833Z,1009.4
2018-08-29T07:56:20.148Z,1009.4
2018-08-29T07:57:22.182Z,1009.3
2018-08-29T07:58:24.222Z,1009.3
2018-08-29T07:59:26.253Z,1009.3
2018-08-29T08:00:28.667Z,1009.2
2018-08-29T08:01:30.795Z,1009.2
2018-08-29T08:02:32.747Z,1009.1
2018-08-29T08:03:34.781Z,1009.1
2018-08-29T08:04:36.800Z,1009.1
2018-08-29T08:05:38.835Z,1009.1
2018-08-29T08:06:41.263Z,1009.1
2018-08-29T08:07:43.504Z,1009.1
2018-08-29T08:08:45.678Z,1009.1
2018-08-29T08:09:47.493Z,1009.1
2018-08-29T08:10:49.877Z,1009.1
2018-08-29T08:11:51.926Z,1009.1
2018-08-29T08:12:54.525Z,1009.1
2018-08-29T08:13:57.135Z,1009.1
2018-08-29T08:14:59.163Z,1009.1
2018-08-29T08:16:01.202Z,1009.1
2018-08-29T08:17:03.231Z,1009.1
2018-08-29T08:18:05.648Z,1009.1
2018-08-29T08:19:07.684Z,1009.1
2018-08-29T08:20:10.096Z,1009.1
2018-08-29T08:21:12.219Z,1009.1
2018-08-29T08:22:14.696Z,1009.2
2018-08-29T08:23:16.734Z,1009.1
2018-08-29T08:24:18.766Z,1009.1
2018-08-29T08:25:20.804Z,1009.1
2018-08-29T08:26:22.833Z,1009.1
2018-08-29T08:27:24.862Z,1009.2
2018-08-29T08:28:26.907Z,1009.1
2018-08-29T08:29:28.932Z,1009.2
2018-08-29T08:30:30.968Z,1009.2
2018-08-29T08:31:33.009Z,1009.2
2018-08-29T08:32:35.199Z,1009.3
2018-08-29T08:33:37.229Z,1009.3
2018-08-29T08:34:39.574Z,1009.3
2018-08-29T08:35:41.592Z,1009.3
2018-08-29T08:36:43.623Z,1009.3
2018-08-29T08:37:45.672Z,1009.3
2018-08-29T08:38:48.097Z,1009.3
2018-08-29T08:39:50.139Z,1009.3
2018-08-29T08:40:52.794Z,1009.3
2018-08-29T08:41:54.653Z,1009.3
2018-08-29T08:42:56.702Z,1009.4
2018-08-29T08:43:58.737Z,1009.3
2018-08-29T08:45:00.784Z,1009.3
2018-08-29T08:46:02.813Z,1009.2
2018-08-29T08:47:04.852Z,1009.2
2018-08-29T08:48:07.465Z,1009.2
2018-08-29T08:49:09.642Z,1009.1
2018-08-29T08:50:11.405Z,1009.2
2018-08-29T08:51:13.442Z,1009.1
2018-08-29T08:52:15.770Z,1009.2
2018-08-29T08:53:18.184Z,1009.2
2018-08-29T08:54:20.231Z,1009.2
2018-08-29T08:55:22.834Z,1009.2
2018-08-29T08:56:24.881Z,1009.2
2018-08-29T08:57:26.915Z,1009.2
2018-08-29T08:58:28.959Z,1009.2
2018-08-29T08:59:31.149Z,1009.2
2018-08-29T09:00:33.028Z,1009.1
2018-08-29T09:01:35.089Z,1009
2018-08-29T09:02:37.410Z,1009.1
2018-08-29T09:03:39.456Z,1009
2018-08-29T09:04:41.501Z,1009
2018-08-29T09:05:43.540Z,1009.1
2018-08-29T09:06:45.663Z,1009
2018-08-29T09:07:47.619Z,1009
2018-08-29T09:08:49.652Z,1009
2018-08-29T09:09:51.695Z,1009
2018-08-29T09:10:53.746Z,1009
2018-08-29T09:11:56.068Z,1009
2018-08-29T09:12:58.103Z,1009
2018-08-29T09:14:00.151Z,1009
2018-08-29T09:15:02.189Z,1008.9
2018-08-29T09:16:04.222Z,1008.8
2018-08-29T09:17:06.272Z,1008.8
2018-08-29T09:18:08.305Z,1008.8
2018-08-29T09:19:10.631Z,1008.9
2018-08-29T09:20:13.055Z,1008.9
2018-08-29T09:21:15.107Z,1008.8
2018-08-29T09:22:17.147Z,1008.9
2018-08-29T09:23:19.475Z,1008.8
2018-08-29T09:24:22.038Z,1008.8
2018-08-29T09:25:24.045Z,1008.8
2018-08-29T09:26:26.099Z,1008.8
2018-08-29T09:27:28.127Z,1008.8
2018-08-29T09:28:30.617Z,1008.7
2018-08-29T09:29:32.596Z,1008.8
2018-08-29T09:30:34.647Z,1008.8
2018-08-29T09:31:36.679Z,1008.8
2018-08-29T09:32:38.765Z,1008.8
2018-08-29T09:33:40.766Z,1008.8
2018-08-29T09:34:42.842Z,1008.8
2018-08-29T09:35:44.855Z,1008.7
2018-08-29T09:36:46.900Z,1008.7
2018-08-29T09:37:48.936Z,1008.7
2018-08-29T09:38:50.977Z,1008.7
2018-08-29T09:39:53.024Z,1008.7
2018-08-29T09:40:55.066Z,1008.7
2018-08-29T09:41:57.112Z,1008.7
2018-08-29T09:42:59.155Z,1008.7
2018-08-29T09:44:01.190Z,1008.6
2018-08-29T09:45:03.324Z,1008.6
2018-08-29T09:46:05.754Z,1008.5
2018-08-29T09:47:08.150Z,1008.6
2018-08-29T09:48:10.124Z,1008.5
2018-08-29T09:49:12.451Z,1008.5
2018-08-29T09:50:14.491Z,1008.6
2018-08-29T09:51:16.579Z,1008.6
2018-08-29T09:52:19.340Z,1008.6
2018-08-29T09:53:21.387Z,1008.6
2018-08-29T09:54:23.429Z,1008.5
2018-08-29T09:55:25.591Z,1008.5
2018-08-29T09:56:27.972Z,1008.5
2018-08-29T09:57:30.306Z,1008.4
2018-08-29T09:58:32.353Z,1008.5
2018-08-29T09:59:34.407Z,1008.5
2018-08-29T10:00:36.740Z,1008.5
2018-08-29T10:01:38.783Z,1008.6
2018-08-29T10:02:40.825Z,1008.5
2018-08-29T10:03:42.879Z,1008.4
2018-08-29T10:04:44.925Z,1008.5
2018-08-29T10:05:46.972Z,1008.4
2018-08-29T10:06:49.024Z,1008.5
2018-08-29T10:07:51.059Z,1008.5
2018-08-29T10:08:53.115Z,1008.4
2018-08-29T10:09:55.186Z,1008.4
2018-08-29T10:10:57.197Z,1008.4
2018-08-29T10:11:59.535Z,1008.4
2018-08-29T10:13:01.587Z,1008.3
2018-08-29T10:14:03.639Z,1008.3
2018-08-29T10:15:06.026Z,1008.3
2018-08-29T10:16:08.235Z,1008.3
2018-08-29T10:17:10.275Z,1008.2
2018-08-29T10:18:12.322Z,1008.2
2018-08-29T10:19:14.373Z,1008.1
2018-08-29T10:20:16.412Z,1008.2
2018-08-29T10:21:18.465Z,1008.2
2018-08-29T10:22:20.515Z,1008.2
2018-08-29T10:23:22.619Z,1008.1
2018-08-29T10:24:24.607Z,1008.1
2018-08-29T10:25:26.649Z,1008.2
2018-08-29T10:26:29.079Z,1008.1
2018-08-29T10:27:31.118Z,1008.1
2018-08-29T10:28:33.452Z,1008.1
2018-08-29T10:29:35.490Z,1008.1
2018-08-29T10:30:37.535Z,1008.1
2018-08-29T10:31:39.585Z,1008.1
2018-08-29T10:32:41.637Z,1008.1
2018-08-29T10:33:43.953Z,1008
2018-08-29T10:34:45.999Z,1008.1
2018-08-29T10:35:48.038Z,1008.1
2018-08-29T10:36:50.397Z,1008.1
2018-08-29T10:37:52.766Z,1008
2018-08-29T10:38:54.775Z,1007.9
2018-08-29T10:39:56.829Z,1007.8
2018-08-29T10:40:58.864Z,1007.8
2018-08-29T10:42:00.930Z,1007.8
2018-08-29T10:43:02.970Z,1007.7
2018-08-29T10:44:05.010Z,1007.6
2018-08-29T10:45:07.194Z,1007.6
2018-08-29T10:46:09.104Z,1007.6
2018-08-29T10:47:11.430Z,1007.6
2018-08-29T10:48:13.772Z,1007.6
2018-08-29T10:49:15.822Z,1007.6
2018-08-29T10:50:17.859Z,1007.6
2018-08-29T10:51:20.568Z,1007.6
2018-08-29T10:52:22.620Z,1007.6
2018-08-29T10:53:24.945Z,1007.6
2018-08-29T10:54:26.994Z,1007.6
2018-08-29T10:55:29.046Z,1007.5
2018-08-29T10:56:31.088Z,1007.5
2018-08-29T10:57:33.229Z,1007.5
2018-08-29T10:58:35.189Z,1007.4
2018-08-29T10:59:37.524Z,1007.4
2018-08-29T11:00:39.565Z,1007.4
2018-08-29T11:01:41.671Z,1007.4
2018-08-29T11:02:44.000Z,1007.4
2018-08-29T11:03:46.059Z,1007.4
2018-08-29T11:04:48.204Z,1007.5
2018-08-29T11:05:50.151Z,1007.5
2018-08-29T11:06:52.204Z,1007.4
2018-08-29T11:07:54.266Z,1007.5
2018-08-29T11:08:56.326Z,1007.4
2018-08-29T11:09:58.363Z,1007.4
2018-08-29T11:11:00.416Z,1007.5
2018-08-29T11:12:02.474Z,1007.5
2018-08-29T11:13:04.533Z,1007.5
2018-08-29T11:14:06.955Z,1007.5
2018-08-29T11:15:09.301Z,1007.5
2018-08-29T11:16:11.367Z,1007.5
2018-08-29T11:17:13.390Z,1007.4
2018-08-29T11:18:15.824Z,1007.4
2018-08-29T11:19:17.879Z,1007.4
2018-08-29T11:20:19.923Z,1007.4
2018-08-29T11:21:22.354Z,1007.4
2018-08-29T11:22:24.581Z,1007.4
2018-08-29T11:23:26.851Z,1007.4
2018-08-29T11:24:28.801Z,1007.3
2018-08-29T11:25:30.857Z,1007.2
2018-08-29T11:26:32.900Z,1007.2
2018-08-29T11:27:35.241Z,1007.3
2018-08-29T11:28:37.301Z,1007.2
2018-08-29T11:29:39.346Z,1007.2
2018-08-29T11:30:41.793Z,1007.2
2018-08-29T11:31:43.834Z,1007.2
2018-08-29T11:32:46.060Z,1007.1
2018-08-29T11:33:48.829Z,1007.2
2018-08-29T11:34:51.454Z,1007.2
2018-08-29T11:35:54.324Z,1007.1
2018-08-29T11:36:56.880Z,1007.1
2018-08-29T11:37:59.511Z,1007.2
2018-08-29T11:39:01.980Z,1007.2
2018-08-29T11:40:04.699Z,1007.1
2018-08-29T11:41:06.750Z,1007.2
2018-08-29T11:42:09.122Z,1007
2018-08-29T11:43:12.240Z,1006.9
2018-08-29T11:44:14.113Z,1007
2018-08-29T11:45:16.158Z,1006.9
2018-08-29T11:46:18.200Z,1007
2018-08-29T11:47:20.256Z,1007
2018-08-29T11:48:22.298Z,1007
2018-08-29T11:49:24.633Z,1007
2018-08-29T11:50:27.278Z,1006.9
2018-08-29T11:51:29.332Z,1006.9
2018-08-29T11:52:31.759Z,1006.9
2018-08-29T11:53:33.814Z,1006.8
2018-08-29T11:54:35.856Z,1006.9
2018-08-29T11:55:38.193Z,1006.8
2018-08-29T11:56:40.250Z,1006.9
2018-08-29T11:57:42.593Z,1006.9
2018-08-29T11:58:44.632Z,1006.8
2018-08-29T11:59:46.686Z,1006.7
2018-08-29T12:00:48.731Z,1006.8
2018-08-29T12:01:50.773Z,1006.7
2018-08-29T12:02:52.827Z,1006.7
2018-08-29T12:03:54.866Z,1006.7
2018-08-29T12:04:56.918Z,1006.7
2018-08-29T12:05:58.966Z,1006.7
2018-08-29T12:07:01.019Z,1006.7
2018-08-29T12:08:03.151Z,1006.7
2018-08-29T12:09:05.513Z,1006.7
2018-08-29T12:10:07.844Z,1006.6
2018-08-29T12:11:09.890Z,1006.6
2018-08-29T12:12:11.952Z,1006.7
2018-08-29T12:13:14.277Z,1006.7
2018-08-29T12:14:16.325Z,1006.6
2018-08-29T12:15:18.371Z,1006.6
2018-08-29T12:16:21.283Z,1006.6
2018-08-29T12:17:23.610Z,1006.6
2018-08-29T12:18:25.965Z,1006.6
2018-08-29T12:19:28.364Z,1006.5
2018-08-29T12:20:30.341Z,1006.6
2018-08-29T12:21:32.690Z,1006.6
2018-08-29T12:22:34.741Z,1006.5
2018-08-29T12:23:36.789Z,1006.6
2018-08-29T12:24:38.827Z,1006.5
2018-08-29T12:25:41.175Z,1006.5
2018-08-29T12:26:43.219Z,1006.5
2018-08-29T12:27:45.261Z,1006.5
2018-08-29T12:28:47.309Z,1006.5
2018-08-29T12:29:49.370Z,1006.4
2018-08-29T12:30:51.423Z,1006.4
2018-08-29T12:31:53.526Z,1006.5
2018-08-29T12:32:56.002Z,1006.4
2018-08-29T12:33:58.048Z,1006.4
2018-08-29T12:35:00.092Z,1006.4
2018-08-29T12:36:02.146Z,1006.4
2018-08-29T12:37:04.183Z,1006.5
2018-08-29T12:38:06.517Z,1006.4
2018-08-29T12:39:08.567Z,1006.4
2018-08-29T12:40:11.001Z,1006.3
2018-08-29T12:41:13.043Z,1006.3
2018-08-29T12:42:15.482Z,1006.5
2018-08-29T12:43:17.814Z,1006.4
2018-08-29T12:44:20.151Z,1006.3
2018-08-29T12:45:22.213Z,1006.3
2018-08-29T12:46:24.246Z,1006.2
2018-08-29T12:47:26.302Z,1006.3
2018-08-29T12:48:28.344Z,1006.2
2018-08-29T12:49:30.436Z,1006.3
2018-08-29T12:50:33.018Z,1006.2
2018-08-29T12:51:34.832Z,1006.2
2018-08-29T12:52:36.885Z,1006.2
2018-08-29T12:53:39.212Z,1006.3
2018-08-29T12:54:41.279Z,1006.2
2018-08-29T12:55:43.327Z,1006.2
2018-08-29T12:56:45.369Z,1006.2
2018-08-29T12:57:47.418Z,1006.2
2018-08-29T12:58:49.473Z,1006.1
2018-08-29T12:59:51.516Z,1006.1
2018-08-29T13:00:53.570Z,1006.1
2018-08-29T13:01:55.642Z,1006.1